Terminal Aerodrome Forecast
Issued by NWS

Home | Current Version | Previous Version | Text Only | Print | Product List | Glossary On
Versions: 1 2 3 4 5 6 7 8 9 10 11 12 13 14
762
FTUS46 KMTR 231233 AAA
TAFSNS
TAF AMD
KSNS 231233Z 2313/2412 VRB03KT P6SM SKC
      TEMPO 2313/2315 BKN005
     FM231900 29012KT P6SM SKC
     FM240400 30007KT P6SM SKC
     FM240800 30006KT P6SM SCT006
     FM241000 28005KT P6SM BKN005=

USA.gov is the U.S. government's official web portal to all federal, state and local government web resources and services.